createdAt,value
2017-12-20T00:02:24.307Z,3.90
2017-12-20T00:04:54.107Z,3.80
2017-12-20T00:07:23.830Z,3.80
2017-12-20T00:09:53.618Z,3.80
2017-12-20T00:12:23.806Z,3.70
2017-12-20T00:14:53.540Z,3.70
2017-12-20T00:17:24.070Z,3.60
2017-12-20T00:19:53.799Z,3.60
2017-12-20T00:22:23.563Z,3.70
2017-12-20T00:24:53.820Z,3.70
2017-12-20T00:27:23.271Z,3.70
2017-12-20T00:29:53.044Z,3.70
2017-12-20T00:32:22.791Z,3.70
2017-12-20T00:34:52.006Z,3.70
2017-12-20T00:37:21.227Z,3.70
2017-12-20T00:39:50.444Z,3.70
2017-12-20T00:42:20.992Z,3.70
2017-12-20T00:44:50.718Z,3.70
2017-12-20T00:51:30.861Z,3.50
2017-12-20T00:54:01.394Z,3.40
2017-12-20T00:56:31.399Z,3.40
2017-12-20T00:59:01.142Z,3.40
2017-12-20T01:01:30.882Z,3.30
2017-12-20T01:04:00.670Z,3.30
2017-12-20T01:06:29.738Z,3.30
2017-12-20T01:09:00.258Z,3.40
2017-12-20T01:11:31.157Z,3.40
2017-12-20T01:14:00.865Z,3.40
2017-12-20T01:16:30.643Z,3.30
2017-12-20T01:19:00.472Z,3.30
2017-12-20T01:21:30.217Z,3.30
2017-12-20T01:24:00.269Z,3.30
2017-12-20T01:26:30.777Z,3.30
2017-12-20T01:29:00.551Z,3.30
2017-12-20T01:31:30.275Z,3.40
2017-12-20T01:34:00.046Z,3.40
2017-12-20T01:36:30.556Z,3.40
2017-12-20T01:39:00.312Z,3.40
2017-12-20T01:41:30.039Z,3.40
2017-12-20T01:43:59.758Z,3.30
2017-12-20T01:46:29.517Z,3.40
2017-12-20T01:49:00.073Z,3.40
2017-12-20T01:51:29.467Z,3.40
2017-12-20T01:53:59.209Z,3.20
2017-12-20T01:56:28.304Z,3.30
2017-12-20T01:58:57.376Z,3.30
2017-12-20T02:01:27.103Z,3.30
2017-12-20T02:03:56.862Z,3.30
2017-12-20T02:06:27.362Z,3.40
2017-12-20T02:08:57.130Z,3.40
2017-12-20T02:11:26.862Z,3.30
2017-12-20T02:13:56.698Z,3.30
2017-12-20T02:16:26.415Z,3.40
2017-12-20T02:18:56.390Z,3.30
2017-12-20T02:21:25.862Z,3.40
2017-12-20T02:23:55.731Z,3.40
2017-12-20T02:26:24.790Z,3.40
2017-12-20T02:28:53.857Z,3.50
2017-12-20T02:31:24.067Z,3.50
2017-12-20T02:33:53.629Z,3.40
2017-12-20T02:36:22.687Z,3.40
2017-12-20T02:38:51.773Z,3.40
2017-12-20T02:41:20.575Z,3.40
2017-12-20T02:43:49.998Z,3.50
2017-12-20T02:46:19.406Z,3.40
2017-12-20T02:48:48.795Z,3.40
2017-12-20T02:51:17.870Z,3.40
2017-12-20T02:53:46.989Z,3.40
2017-12-20T02:56:16.067Z,3.40
2017-12-20T02:58:45.897Z,3.30
2017-12-20T03:01:14.765Z,3.30
2017-12-20T03:03:43.906Z,3.30
2017-12-20T03:06:13.402Z,3.30
2017-12-20T03:08:42.230Z,3.40
2017-12-20T03:11:11.632Z,3.40
2017-12-20T03:13:40.422Z,3.40
2017-12-20T03:16:09.847Z,3.40
2017-12-20T03:18:40.068Z,3.40
2017-12-20T03:21:09.502Z,3.40
2017-12-20T03:23:39.661Z,3.20
2017-12-20T03:26:09.479Z,3.20
2017-12-20T03:28:39.258Z,3.30
2017-12-20T03:31:09.015Z,3.30
2017-12-20T03:33:38.749Z,3.30
2017-12-20T03:36:08.973Z,3.30
2017-12-20T03:38:39.530Z,3.20
2017-12-20T03:41:09.295Z,3.20
2017-12-20T03:43:39.071Z,3.20
2017-12-20T03:46:08.822Z,3.10
2017-12-20T03:48:38.554Z,3.10
2017-12-20T03:51:08.449Z,3.00
2017-12-20T03:53:37.506Z,3.00
2017-12-20T03:56:06.929Z,3.10
2017-12-20T03:58:36.682Z,3.00
2017-12-20T04:01:07.213Z,3.00
2017-12-20T04:03:37.763Z,3.00
2017-12-20T04:06:07.482Z,3.00
2017-12-20T04:08:37.242Z,3.10
2017-12-20T04:11:06.966Z,3.10
2017-12-20T04:13:37.510Z,3.10
2017-12-20T04:16:07.284Z,3.00
2017-12-20T04:18:37.007Z,3.10
2017-12-20T04:21:06.763Z,3.10
2017-12-20T04:23:36.481Z,3.10
2017-12-20T04:26:06.239Z,3.10
2017-12-20T04:28:36.008Z,3.00
2017-12-20T04:31:06.582Z,3.00
2017-12-20T04:33:36.327Z,3.10
2017-12-20T04:36:06.073Z,3.10
2017-12-20T04:38:35.840Z,3.20
2017-12-20T04:41:06.347Z,3.30
2017-12-20T04:43:36.182Z,3.30
2017-12-20T04:46:05.923Z,3.20
2017-12-20T04:48:35.823Z,3.30
2017-12-20T04:51:05.631Z,3.30
2017-12-20T04:53:35.382Z,3.30
2017-12-20T04:56:05.145Z,3.30
2017-12-20T04:58:34.874Z,3.30
2017-12-20T05:01:04.651Z,3.30
2017-12-20T05:03:34.381Z,3.30
2017-12-20T05:06:03.843Z,3.40
2017-12-20T05:08:33.562Z,3.40
2017-12-20T05:11:03.335Z,3.30
2017-12-20T05:13:33.081Z,3.40
2017-12-20T05:16:02.841Z,3.40
2017-12-20T05:18:32.634Z,3.30
2017-12-20T05:21:03.191Z,3.30
2017-12-20T05:23:32.927Z,3.30
2017-12-20T05:26:02.719Z,3.30
2017-12-20T05:28:32.437Z,3.30
2017-12-20T05:31:02.212Z,3.20
2017-12-20T05:33:32.745Z,3.20
2017-12-20T05:36:03.302Z,3.30
2017-12-20T05:38:33.229Z,3.30
2017-12-20T05:41:02.997Z,3.40
2017-12-20T05:43:33.531Z,3.40
2017-12-20T05:46:04.067Z,3.40
2017-12-20T05:48:34.614Z,3.40
2017-12-20T05:51:04.386Z,3.40
2017-12-20T05:53:34.138Z,3.30
2017-12-20T05:56:03.911Z,3.30
2017-12-20T05:58:33.674Z,3.40
2017-12-20T06:01:03.424Z,3.40
2017-12-20T06:03:33.183Z,3.40
2017-12-20T06:06:02.942Z,3.30
2017-12-20T06:08:32.727Z,3.30
2017-12-20T06:11:02.467Z,3.30
2017-12-20T06:13:32.253Z,3.30
2017-12-20T06:16:01.995Z,3.30
2017-12-20T06:18:32.626Z,3.40
2017-12-20T06:21:02.351Z,3.40
2017-12-20T06:23:32.186Z,3.30
2017-12-20T06:26:02.742Z,3.20
2017-12-20T06:28:32.511Z,3.20
2017-12-20T06:31:02.808Z,3.10
2017-12-20T06:33:32.572Z,3.10
2017-12-20T06:36:02.364Z,3.20
2017-12-20T06:38:32.920Z,3.20
2017-12-20T06:41:02.700Z,3.10
2017-12-20T06:43:33.260Z,3.10
2017-12-20T06:46:02.998Z,3.10
2017-12-20T06:48:32.746Z,3.10
2017-12-20T06:51:02.638Z,3.10
2017-12-20T06:53:32.421Z,3.20
2017-12-20T06:56:02.195Z,3.20
2017-12-20T06:58:32.864Z,3.10
2017-12-20T07:01:02.665Z,3.10
2017-12-20T07:03:32.378Z,3.10
2017-12-20T07:06:02.163Z,3.10
2017-12-20T07:08:32.676Z,3.10
2017-12-20T07:11:02.494Z,3.10
2017-12-20T07:13:32.352Z,3.20
2017-12-20T07:16:02.180Z,3.10
2017-12-20T07:18:31.919Z,3.10
2017-12-20T07:21:01.684Z,3.10
2017-12-20T07:23:31.454Z,3.10
2017-12-20T07:26:02.092Z,3.10
2017-12-20T07:28:31.883Z,3.10
2017-12-20T07:31:01.765Z,3.10
2017-12-20T07:33:31.567Z,3.00
2017-12-20T07:36:01.318Z,3.00
2017-12-20T07:38:31.219Z,3.20
2017-12-20T07:41:00.960Z,3.20
2017-12-20T07:43:30.724Z,3.20
2017-12-20T07:46:00.536Z,3.10
2017-12-20T07:48:30.370Z,3.10
2017-12-20T07:51:00.146Z,3.20
2017-12-20T07:53:29.592Z,3.20
2017-12-20T07:55:59.429Z,3.30
2017-12-20T07:58:29.194Z,3.20
2017-12-20T08:00:58.976Z,3.10
2017-12-20T08:03:29.505Z,3.20
2017-12-20T08:06:00.050Z,3.30
2017-12-20T08:08:29.851Z,3.30
2017-12-20T08:11:00.361Z,3.30
2017-12-20T08:13:30.901Z,3.30
2017-12-20T08:16:01.390Z,3.40
2017-12-20T08:18:31.194Z,3.40
2017-12-20T08:21:01.470Z,3.40
2017-12-20T08:23:31.237Z,3.40
2017-12-20T08:26:00.676Z,3.50
2017-12-20T08:28:31.222Z,3.60
2017-12-20T08:31:00.970Z,3.50
2017-12-20T08:33:30.749Z,3.50
2017-12-20T08:36:00.499Z,3.50
2017-12-20T08:38:30.235Z,3.40
2017-12-20T08:41:00.452Z,3.50
2017-12-20T08:43:30.219Z,3.50
2017-12-20T08:45:59.988Z,3.50
2017-12-20T08:48:29.720Z,3.60
2017-12-20T08:51:00.488Z,3.60
2017-12-20T08:53:31.184Z,3.70
2017-12-20T08:56:00.934Z,3.80
2017-12-20T08:58:30.866Z,3.80
2017-12-20T09:01:00.603Z,3.90
2017-12-20T09:03:30.101Z,3.90
2017-12-20T09:05:59.838Z,3.90
2017-12-20T09:08:29.594Z,3.80
2017-12-20T09:11:00.098Z,3.80
2017-12-20T09:13:29.917Z,3.80
2017-12-20T09:16:00.479Z,3.60
2017-12-20T09:18:30.805Z,3.60
2017-12-20T09:21:00.654Z,3.60
2017-12-20T09:23:30.430Z,3.60
2017-12-20T09:26:00.204Z,3.80
2017-12-20T09:28:29.941Z,4.00
2017-12-20T09:31:00.523Z,4.00
2017-12-20T09:33:30.823Z,4.00
2017-12-20T09:36:00.729Z,4.00
2017-12-20T09:38:30.552Z,4.00
2017-12-20T09:41:00.311Z,3.90
2017-12-20T09:43:30.084Z,3.90
2017-12-20T09:45:59.823Z,3.90
2017-12-20T09:48:29.587Z,3.90
2017-12-20T09:50:59.367Z,4.00
2017-12-20T09:53:35.026Z,4.00
2017-12-20T09:56:04.801Z,4.00
2017-12-20T09:58:34.593Z,3.90
2017-12-20T10:01:04.503Z,3.80
2017-12-20T10:03:34.268Z,3.90
2017-12-20T10:06:05.382Z,3.80
2017-12-20T10:08:35.172Z,3.80
2017-12-20T10:11:04.980Z,3.80
2017-12-20T10:13:35.659Z,3.80
2017-12-20T10:16:06.269Z,3.80
2017-12-20T10:18:36.874Z,3.90
2017-12-20T10:21:06.744Z,3.80
2017-12-20T10:23:36.621Z,3.80
2017-12-20T10:26:07.107Z,3.90
2017-12-20T10:28:37.392Z,3.90
2017-12-20T10:31:07.174Z,3.90
2017-12-20T10:33:36.936Z,3.90
2017-12-20T10:36:06.798Z,3.90
2017-12-20T10:38:36.687Z,4.00
2017-12-20T10:41:07.207Z,4.00
2017-12-20T10:43:37.469Z,4.00
2017-12-20T10:46:07.043Z,4.00
2017-12-20T10:48:37.250Z,4.00
2017-12-20T10:51:07.059Z,4.00
2017-12-20T10:53:36.823Z,4.10
2017-12-20T10:56:06.579Z,4.10
2017-12-20T10:58:36.348Z,4.10
2017-12-20T11:01:05.785Z,4.10
2017-12-20T11:03:35.194Z,4.10
2017-12-20T11:06:04.300Z,4.10
2017-12-20T11:08:34.303Z,4.20
2017-12-20T11:11:04.105Z,4.10
2017-12-20T11:13:33.878Z,4.10
2017-12-20T11:16:04.030Z,4.10
2017-12-20T11:18:33.794Z,4.10
2017-12-20T11:21:03.999Z,4.00
2017-12-20T11:23:33.277Z,4.00
2017-12-20T11:26:03.078Z,4.00
2017-12-20T11:28:32.830Z,4.00
2017-12-20T11:31:02.762Z,4.00
2017-12-20T11:33:32.185Z,4.00
2017-12-20T11:36:01.955Z,4.00
2017-12-20T11:38:31.362Z,4.00
2017-12-20T11:41:01.147Z,4.00
2017-12-20T11:43:30.898Z,4.00
2017-12-20T11:46:01.431Z,4.20
2017-12-20T11:48:31.211Z,4.10
2017-12-20T11:51:00.996Z,4.20
2017-12-20T11:53:30.829Z,4.20
2017-12-20T11:56:00.260Z,4.10
2017-12-20T11:58:30.059Z,4.20
2017-12-20T12:00:59.498Z,4.30
2017-12-20T12:03:28.977Z,4.30
2017-12-20T12:05:59.190Z,4.10
2017-12-20T12:08:28.958Z,4.10
2017-12-20T12:10:58.718Z,4.00
2017-12-20T12:13:29.280Z,4.20
2017-12-20T12:15:59.010Z,4.20
2017-12-20T12:18:28.806Z,4.20
2017-12-20T12:20:58.830Z,4.20
2017-12-20T12:23:28.594Z,4.20
2017-12-20T12:25:59.158Z,4.10
2017-12-20T12:28:28.918Z,4.10
2017-12-20T12:30:57.989Z,4.10
2017-12-20T12:33:27.474Z,4.10
2017-12-20T12:35:56.595Z,4.20
2017-12-20T12:38:26.453Z,4.30
2017-12-20T12:40:56.464Z,4.30
2017-12-20T12:43:26.298Z,4.30
2017-12-20T12:45:56.179Z,4.40
2017-12-20T12:48:25.731Z,4.40
2017-12-20T12:50:55.537Z,4.30
2017-12-20T12:53:25.366Z,4.20
2017-12-20T12:55:54.892Z,4.20
2017-12-20T12:58:24.338Z,4.30
2017-12-20T13:00:54.164Z,4.30
2017-12-20T13:03:24.085Z,4.30
2017-12-20T13:05:54.664Z,4.30
2017-12-20T13:08:24.424Z,4.30
2017-12-20T13:10:53.934Z,4.20
2017-12-20T13:13:23.696Z,4.20
2017-12-20T13:15:53.462Z,4.20
2017-12-20T13:18:23.966Z,4.20
2017-12-20T13:20:53.752Z,4.20
2017-12-20T13:23:23.530Z,4.20
2017-12-20T13:25:53.302Z,4.20
2017-12-20T13:28:23.075Z,4.20
2017-12-20T13:30:52.573Z,4.20
2017-12-20T13:33:22.361Z,4.10
2017-12-20T13:35:52.164Z,4.10
2017-12-20T13:38:21.918Z,4.10
2017-12-20T13:40:51.682Z,4.10
2017-12-20T13:43:22.190Z,4.00
2017-12-20T13:45:51.672Z,4.00
2017-12-20T13:48:21.431Z,4.10
2017-12-20T13:50:52.050Z,4.10
2017-12-20T13:53:22.544Z,4.10
2017-12-20T13:55:52.354Z,4.10
2017-12-20T13:58:22.095Z,4.20
2017-12-20T14:00:51.162Z,4.20
2017-12-20T14:03:20.708Z,4.20
2017-12-20T14:05:50.894Z,4.20
2017-12-20T14:08:20.885Z,4.20
2017-12-20T14:10:50.683Z,4.20
2017-12-20T14:13:20.414Z,4.20
2017-12-20T14:15:50.179Z,4.20
2017-12-20T14:18:19.898Z,4.20
2017-12-20T14:20:50.443Z,4.20
2017-12-20T14:23:20.254Z,4.20
2017-12-20T14:25:50.046Z,4.20
2017-12-20T14:28:19.835Z,4.10
2017-12-20T14:30:49.645Z,4.10
2017-12-20T14:33:19.408Z,4.10
2017-12-20T14:35:49.178Z,4.10
2017-12-20T14:38:19.041Z,4.10
2017-12-20T14:40:49.443Z,4.10
2017-12-20T14:43:20.022Z,4.00
2017-12-20T14:45:49.813Z,4.00
2017-12-20T14:48:19.611Z,4.00
2017-12-20T14:50:49.780Z,3.90
2017-12-20T14:53:19.521Z,3.90
2017-12-20T14:55:48.704Z,3.90
2017-12-20T14:58:18.422Z,3.90
2017-12-20T15:00:47.328Z,3.90
2017-12-20T15:03:17.898Z,3.90
2017-12-20T15:05:47.784Z,3.90
2017-12-20T15:08:17.259Z,4.00
2017-12-20T15:10:47.042Z,4.00
2017-12-20T15:13:16.641Z,4.00
2017-12-20T15:15:47.386Z,4.00
2017-12-20T15:18:17.162Z,4.00
2017-12-20T15:20:46.932Z,4.00
2017-12-20T15:23:16.365Z,4.00
2017-12-20T15:25:46.874Z,3.90
2017-12-20T15:28:16.636Z,3.90
2017-12-20T15:30:47.303Z,3.90
2017-12-20T15:33:17.268Z,4.00
2017-12-20T15:35:46.685Z,4.00
2017-12-20T15:38:16.525Z,4.00
2017-12-20T15:40:45.887Z,4.00
2017-12-20T15:43:15.035Z,3.90
2017-12-20T15:45:45.335Z,4.00
2017-12-20T15:48:15.163Z,4.00
2017-12-20T15:50:44.940Z,4.00
2017-12-20T15:53:14.403Z,4.00
2017-12-20T15:55:44.175Z,4.10
2017-12-20T15:58:13.954Z,4.00
2017-12-20T16:00:43.910Z,4.10
2017-12-20T16:03:13.692Z,4.10
2017-12-20T16:05:43.471Z,4.10
2017-12-20T16:08:13.220Z,4.20
2017-12-20T16:10:43.014Z,4.20
2017-12-20T16:13:12.788Z,4.30
2017-12-20T16:15:42.569Z,4.20
2017-12-20T16:18:17.595Z,4.20
2017-12-20T16:20:47.383Z,4.20
2017-12-20T16:23:17.972Z,4.20
2017-12-20T16:25:47.808Z,4.20
2017-12-20T16:28:17.562Z,4.20
2017-12-20T16:30:47.355Z,4.20
2017-12-20T16:33:17.719Z,4.30
2017-12-20T16:35:47.130Z,4.30
2017-12-20T16:38:17.216Z,4.30
2017-12-20T16:40:46.937Z,4.30
2017-12-20T16:43:16.510Z,4.30
2017-12-20T16:45:46.994Z,4.30
2017-12-20T16:48:16.430Z,4.30
2017-12-20T16:50:46.147Z,4.30
2017-12-20T16:53:15.241Z,4.30
2017-12-20T16:55:44.719Z,4.20
2017-12-20T16:58:14.979Z,4.10
2017-12-20T17:00:45.295Z,4.10
2017-12-20T17:03:15.809Z,4.10
2017-12-20T17:05:45.651Z,4.10
2017-12-20T17:08:16.149Z,4.10
2017-12-20T17:10:46.770Z,4.10
2017-12-20T17:13:16.538Z,4.10
2017-12-20T17:15:46.302Z,4.10
2017-12-20T17:18:16.856Z,4.10
2017-12-20T17:20:48.479Z,4.20
2017-12-20T17:23:18.377Z,4.20
2017-12-20T17:25:48.126Z,4.20
2017-12-20T17:28:17.934Z,4.20
2017-12-20T17:30:47.808Z,4.20
2017-12-20T17:33:17.230Z,4.20
2017-12-20T17:35:47.109Z,4.20
2017-12-20T17:38:16.903Z,4.30
2017-12-20T17:40:46.419Z,4.30
2017-12-20T17:43:16.928Z,4.30
2017-12-20T17:45:47.491Z,4.30
2017-12-20T17:48:17.229Z,4.30
2017-12-20T17:50:47.048Z,4.30
2017-12-20T17:53:16.954Z,4.30
2017-12-20T17:55:46.935Z,4.30
2017-12-20T17:58:16.702Z,4.30
2017-12-20T18:00:45.787Z,4.30
2017-12-20T18:03:15.561Z,4.30
2017-12-20T18:05:44.999Z,4.40
2017-12-20T18:08:14.786Z,4.40
2017-12-20T18:10:44.640Z,4.50
2017-12-20T18:13:14.446Z,4.50
2017-12-20T18:15:44.224Z,4.50
2017-12-20T18:18:14.054Z,4.50
2017-12-20T18:20:44.320Z,4.50
2017-12-20T18:23:15.255Z,4.40
2017-12-20T18:25:45.775Z,4.40
2017-12-20T18:28:15.189Z,4.40
2017-12-20T18:30:45.059Z,4.30
2017-12-20T18:33:14.847Z,4.40
2017-12-20T18:35:44.602Z,4.40
2017-12-20T18:38:14.383Z,4.40
2017-12-20T18:40:44.345Z,4.40
2017-12-20T18:43:14.885Z,4.50
2017-12-20T18:45:45.470Z,4.40
2017-12-20T18:48:15.301Z,4.50
2017-12-20T18:50:45.255Z,4.40
2017-12-20T18:53:16.318Z,4.40
2017-12-20T18:55:48.013Z,4.50
2017-12-20T18:58:17.851Z,4.40
2017-12-20T19:00:47.277Z,4.50
2017-12-20T19:03:17.079Z,4.40
2017-12-20T19:05:47.751Z,4.40
2017-12-20T19:08:17.679Z,4.40
2017-12-20T19:10:47.539Z,4.50
2017-12-20T19:13:18.534Z,4.50
2017-12-20T19:15:47.781Z,4.60
2017-12-20T19:18:18.030Z,4.60
2017-12-20T19:20:47.875Z,4.60
2017-12-20T19:23:17.654Z,4.60
2017-12-20T19:25:47.501Z,4.60
2017-12-20T19:28:17.236Z,4.60
2017-12-20T19:30:47.805Z,4.60
2017-12-20T19:33:17.654Z,4.60
2017-12-20T19:35:47.464Z,4.60
2017-12-20T19:38:17.243Z,4.60
2017-12-20T19:40:46.994Z,4.60
2017-12-20T19:43:16.767Z,4.50
2017-12-20T19:45:46.538Z,4.50
2017-12-20T19:48:16.326Z,4.50
2017-12-20T19:50:45.767Z,4.50
2017-12-20T19:53:15.624Z,4.50
2017-12-20T19:55:45.461Z,4.50
2017-12-20T19:58:15.282Z,4.50
2017-12-20T20:00:45.071Z,4.50
2017-12-20T20:03:14.821Z,4.50
2017-12-20T20:05:45.414Z,4.50
2017-12-20T20:08:15.272Z,4.50
2017-12-20T20:10:45.044Z,4.50
2017-12-20T20:13:14.851Z,4.50
2017-12-20T20:15:44.647Z,4.50
2017-12-20T20:18:14.512Z,4.50
2017-12-20T20:20:44.226Z,4.50
2017-12-20T20:23:14.107Z,4.50
2017-12-20T20:25:43.875Z,4.50
2017-12-20T20:28:14.350Z,4.50
2017-12-20T20:30:44.191Z,4.50
2017-12-20T20:33:14.098Z,4.50
2017-12-20T20:35:43.896Z,4.60
2017-12-20T20:38:13.942Z,4.50
2017-12-20T20:40:45.239Z,4.50
2017-12-20T20:43:15.015Z,4.50
2017-12-20T20:45:45.547Z,4.50
2017-12-20T20:48:16.139Z,4.50
2017-12-20T20:50:45.875Z,4.50
2017-12-20T20:53:15.702Z,4.50
2017-12-20T20:55:46.240Z,4.50
2017-12-20T20:58:16.811Z,4.50
2017-12-20T21:00:46.596Z,4.40
2017-12-20T21:03:16.356Z,4.50
2017-12-20T21:05:46.162Z,4.40
2017-12-20T21:08:15.940Z,4.50
2017-12-20T21:10:45.840Z,4.50
2017-12-20T21:13:15.628Z,4.50
2017-12-20T21:15:45.158Z,4.50
2017-12-20T21:18:15.734Z,4.50
2017-12-20T21:20:46.284Z,4.60
2017-12-20T21:23:21.612Z,4.60
2017-12-20T21:25:51.409Z,4.60
2017-12-20T21:28:21.395Z,4.60
2017-12-20T21:30:50.862Z,4.60
2017-12-20T21:33:20.635Z,4.60
2017-12-20T21:35:50.376Z,4.60
2017-12-20T21:38:20.193Z,4.60
2017-12-20T21:40:51.489Z,4.60
2017-12-20T21:43:22.134Z,4.70
2017-12-20T21:45:51.947Z,4.70
2017-12-20T21:48:21.355Z,4.70
2017-12-20T21:50:50.761Z,4.70
2017-12-20T21:53:20.554Z,4.80
2017-12-20T21:55:50.551Z,4.80
2017-12-20T21:58:20.510Z,4.80
2017-12-20T22:00:51.459Z,4.80
2017-12-20T22:03:21.233Z,4.80
2017-12-20T22:05:51.724Z,4.70
2017-12-20T22:08:22.201Z,4.70
2017-12-20T22:10:51.726Z,4.80
2017-12-20T22:13:21.226Z,4.70
2017-12-20T22:15:50.996Z,4.70
2017-12-20T22:18:20.792Z,4.70
2017-12-20T22:20:52.188Z,4.70
2017-12-20T22:23:22.674Z,4.70
2017-12-20T22:25:52.456Z,4.70
2017-12-20T22:28:22.235Z,4.70
2017-12-20T22:30:54.438Z,4.70
2017-12-20T22:33:24.851Z,4.70
2017-12-20T22:35:54.578Z,4.70
2017-12-20T22:38:24.352Z,4.80
2017-12-20T22:40:54.919Z,4.80
2017-12-20T22:43:24.672Z,4.80
2017-12-20T22:45:53.769Z,4.80
2017-12-20T22:48:23.636Z,4.80
2017-12-20T22:50:53.375Z,4.80
2017-12-20T22:53:23.142Z,4.80
2017-12-20T22:55:52.976Z,4.90
2017-12-20T22:58:22.689Z,4.90
2017-12-20T23:00:52.499Z,4.90
2017-12-20T23:03:22.377Z,4.90
2017-12-20T23:05:52.415Z,4.90
2017-12-20T23:08:22.283Z,4.90
2017-12-20T23:10:52.806Z,4.90
2017-12-20T23:13:22.576Z,4.90
2017-12-20T23:15:52.362Z,4.90
2017-12-20T23:18:22.889Z,4.90
2017-12-20T23:20:52.720Z,4.90
2017-12-20T23:23:22.751Z,5.00
2017-12-20T23:25:52.763Z,5.00
2017-12-20T23:28:22.493Z,5.00
2017-12-20T23:30:52.242Z,5.00
2017-12-20T23:33:22.779Z,5.00
2017-12-20T23:35:53.631Z,5.00
2017-12-20T23:38:23.376Z,5.00
2017-12-20T23:40:53.121Z,5.00
2017-12-20T23:43:23.260Z,5.00
2017-12-20T23:45:53.042Z,5.00
2017-12-20T23:48:22.818Z,5.00
2017-12-20T23:50:52.576Z,5.00
2017-12-20T23:53:22.295Z,5.00
2017-12-20T23:55:52.124Z,5.00
2017-12-20T23:58:22.631Z,5.00
